Time;durP1;ratioP1;P1;durP2;ratioP2;P2;SDS_P1;SDS_P2;PMS_P1;PMS_P2;Temp;Humidity;BMP_temperature;BMP_pressure;BME280_temperature;BME280_humidity;BME280_pressure;Samples;Min_cycle;Max_cycle;Signal;HPM_P1;HPM_P2
2022/01/24 00:04:17;;;;;;;0.20;0.00;;;7.40;99.90;;;;;;25590014;23;20198;-70
2022/01/24 00:14:50;;;;;;;0.20;0.00;;;7.30;99.90;;;;;;25591559;23;20175;-71
2022/01/24 00:35:18;;;;;;;0.20;0.17;;;7.20;99.90;;;;;;25591451;23;20618;-65
2022/01/24 00:45:32;;;;;;;0.20;0.00;;;7.00;99.90;;;;;;25590411;23;20272;-65
2022/01/24 00:55:36;;;;;;;0.20;0.10;;;7.00;99.90;;;;;;25588292;23;20495;-65
2022/01/24 01:05:58;;;;;;;0.50;0.50;;;6.90;99.90;;;;;;25588791;23;20613;-65
2022/01/24 01:26:31;;;;;;;0.20;0.10;;;6.90;99.90;;;;;;25586552;23;20198;-64
2022/01/24 01:57:23;;;;;;;0.20;0.10;;;6.80;99.90;;;;;;25589378;23;20672;-65
2022/01/24 02:07:28;;;;;;;0.20;0.00;;;6.80;99.90;;;;;;25586075;23;20284;-65
2022/01/24 02:17:43;;;;;;;0.20;0.10;;;6.70;99.90;;;;;;25587135;23;20228;-65
2022/01/24 02:27:54;;;;;;;0.20;0.10;;;6.60;99.90;;;;;;25585463;23;20653;-65
2022/01/24 02:38:02;;;;;;;0.20;0.00;;;6.50;99.90;;;;;;25587171;23;20196;-65
2022/01/24 02:48:24;;;;;;;0.20;0.00;;;6.50;99.90;;;;;;25586469;23;20274;-65
2022/01/24 02:58:28;;;;;;;0.20;0.00;;;6.50;99.90;;;;;;25585941;23;20594;-66
2022/01/24 03:08:37;;;;;;;0.20;0.10;;;6.40;99.90;;;;;;25584996;23;20213;-66
2022/01/24 03:18:41;;;;;;;0.20;0.10;;;6.30;99.90;;;;;;25583998;23;20257;-66
2022/01/24 03:28:46;;;;;;;0.20;0.10;;;6.20;99.90;;;;;;25582883;23;20209;-66
2022/01/24 03:38:50;;;;;;;0.20;0.00;;;6.20;99.90;;;;;;25583595;23;20261;-66
2022/01/24 03:49:08;;;;;;;0.20;0.10;;;6.20;99.90;;;;;;25587098;23;20279;-66
2022/01/24 03:59:12;;;;;;;0.20;0.10;;;6.30;99.90;;;;;;25592742;23;20244;-66
2022/01/24 04:09:17;;;;;;;0.20;0.10;;;6.20;99.90;;;;;;25589191;23;20298;-66
2022/01/24 04:21:17;;;;;;;0.20;0.10;;;6.10;99.90;;;;;;25591333;23;20257;-66
2022/01/24 04:29:51;;;;;;;0.20;0.03;;;6.10;99.90;;;;;;25589433;23;20190;-65
2022/01/24 04:39:56;;;;;;;0.20;0.10;;;6.00;99.90;;;;;;25591160;23;20201;-66
2022/01/24 04:50:38;;;;;;;0.20;0.10;;;6.00;99.90;;;;;;25590034;23;20633;-65
2022/01/24 05:00:42;;;;;;;0.20;0.10;;;5.90;99.90;;;;;;25589106;23;20194;-65
2022/01/24 05:10:57;;;;;;;0.20;0.10;;;5.80;99.90;;;;;;25587704;23;20206;-65
2022/01/24 05:31:24;;;;;;;0.20;0.10;;;5.80;99.90;;;;;;25588187;23;20190;-72
2022/01/24 05:41:28;;;;;;;0.20;0.10;;;5.80;99.90;;;;;;25587964;23;20177;-74
2022/01/24 05:51:34;;;;;;;0.20;0.10;;;5.70;99.90;;;;;;25587478;23;20759;-71
2022/01/24 06:01:38;;;;;;;0.20;0.10;;;5.70;99.90;;;;;;25585001;23;20224;-66
2022/01/24 06:11:44;;;;;;;0.20;0.07;;;5.60;99.90;;;;;;25585327;23;20263;-68
2022/01/24 06:21:47;;;;;;;0.20;0.10;;;5.60;99.90;;;;;;25586203;23;20174;-66
2022/01/24 06:31:54;;;;;;;0.20;0.13;;;5.60;99.90;;;;;;25584959;23;20236;-66
2022/01/24 06:42:09;;;;;;;0.20;0.10;;;5.70;99.90;;;;;;25585149;23;20248;-67
2022/01/24 06:52:15;;;;;;;0.20;0.10;;;5.70;99.90;;;;;;25581916;23;20201;-65
2022/01/24 07:02:19;;;;;;;0.23;0.23;;;5.60;99.90;;;;;;25577124;23;20284;-66
2022/01/24 07:12:24;;;;;;;0.20;0.00;;;5.60;99.90;;;;;;25576283;23;20609;-73
2022/01/24 07:22:28;;;;;;;0.20;0.20;;;5.70;99.90;;;;;;25585997;23;20194;-72
2022/01/24 07:32:33;;;;;;;0.20;0.00;;;5.90;99.90;;;;;;25584013;23;20194;-66
2022/01/24 07:42:53;;;;;;;0.20;0.10;;;6.00;99.90;;;;;;25580949;23;20176;-65
2022/01/24 07:52:59;;;;;;;0.20;0.00;;;6.30;99.90;;;;;;25580869;23;20272;-65
2022/01/24 08:03:03;;;;;;;0.20;0.10;;;6.60;99.90;;;;;;25582735;23;20186;-70
2022/01/24 08:13:09;;;;;;;0.20;0.10;;;6.70;99.90;;;;;;25579642;23;20216;-73
2022/01/24 08:23:13;;;;;;;0.20;0.00;;;7.10;99.90;;;;;;25580560;23;20182;-71
2022/01/24 08:33:18;;;;;;;0.20;0.00;;;7.20;99.90;;;;;;25579686;23;20193;-68
2022/01/24 08:43:37;;;;;;;0.20;0.00;;;7.40;99.90;;;;;;25579852;23;20245;-68
2022/01/24 08:53:42;;;;;;;0.20;0.07;;;7.60;99.90;;;;;;25576373;23;20178;-70
2022/01/24 09:03:46;;;;;;;0.20;0.10;;;7.50;99.90;;;;;;25579729;23;20190;-71
2022/01/24 09:13:52;;;;;;;0.20;0.00;;;7.60;99.90;;;;;;25577048;23;20264;-70
2022/01/24 09:23:56;;;;;;;0.20;0.10;;;7.70;99.90;;;;;;25584554;23;20252;-71
2022/01/24 09:34:03;;;;;;;0.20;0.10;;;7.90;99.90;;;;;;25582148;23;20209;-66
2022/01/24 09:44:07;;;;;;;0.20;0.10;;;8.20;99.90;;;;;;25581373;23;20186;-65
2022/01/24 09:54:13;;;;;;;0.20;0.00;;;8.50;99.90;;;;;;25585221;23;20651;-67
2022/01/24 10:04:21;;;;;;;0.20;0.10;;;8.70;99.90;;;;;;25582598;23;20221;-66
2022/01/24 10:24:59;;;;;;;0.20;0.10;;;9.80;99.90;;;;;;25581795;23;20236;-69
2022/01/24 10:35:25;;;;;;;0.20;0.10;;;10.40;99.90;;;;;;25575665;23;20170;-70
2022/01/24 10:45:31;;;;;;;0.20;0.10;;;11.00;99.90;;;;;;25567262;23;20221;-69
2022/01/24 10:55:37;;;;;;;0.20;0.10;;;12.20;99.90;;;;;;25567219;23;20187;-69
2022/01/24 11:05:41;;;;;;;0.20;0.10;;;13.10;99.90;;;;;;25576741;23;20625;-70
2022/01/24 11:15:55;;;;;;;0.20;0.10;;;13.30;99.90;;;;;;25576240;23;20253;-70
2022/01/24 11:26:05;;;;;;;0.20;0.10;;;14.60;99.90;;;;;;25586056;23;20872;-65
2022/01/24 11:36:11;;;;;;;0.20;0.10;;;15.30;99.90;;;;;;25578024;23;20170;-66
2022/01/24 11:46:34;;;;;;;0.20;0.10;;;15.30;99.90;;;;;;25574853;23;20523;-68
2022/01/24 11:56:40;;;;;;;0.20;0.10;;;15.90;99.90;;;;;;25575802;23;20566;-67
2022/01/24 12:07:17;;;;;;;0.47;0.47;;;16.20;99.90;;;;;;25574515;23;20235;-72
2022/01/24 12:17:50;;;;;;;0.20;0.00;;;16.00;99.90;;;;;;25571127;23;20188;-69
2022/01/24 12:28:18;;;;;;;0.20;0.10;;;16.00;99.90;;;;;;25573882;23;20222;-71
2022/01/24 12:38:23;;;;;;;0.20;0.10;;;16.70;99.90;;;;;;25556519;23;20186;-71
2022/01/24 12:48:27;;;;;;;0.20;0.10;;;17.90;99.90;;;;;;25571614;23;20378;-69
2022/01/24 12:58:34;;;;;;;0.20;0.10;;;18.30;99.90;;;;;;25570516;23;20194;-70
2022/01/24 13:08:38;;;;;;;0.20;0.10;;;18.60;99.90;;;;;;25571099;23;20661;-70
2022/01/24 13:29:05;;;;;;;0.20;0.20;;;18.60;99.90;;;;;;25566132;23;20194;-66
2022/01/24 13:39:12;;;;;;;0.20;0.00;;;18.50;99.90;;;;;;25557913;23;20538;-73
2022/01/24 13:49:17;;;;;;;0.20;0.00;;;18.40;99.90;;;;;;25570835;23;20216;-74
2022/01/24 13:59:24;;;;;;;0.20;0.10;;;18.60;99.90;;;;;;25572369;23;20201;-75
2022/01/24 14:09:37;;;;;;;0.20;0.00;;;19.00;99.90;;;;;;25569119;23;20220;-74
2022/01/24 14:19:43;;;;;;;0.20;0.10;;;19.80;99.90;;;;;;25572049;23;20252;-80
2022/01/24 14:29:47;;;;;;;0.20;0.07;;;18.70;99.90;;;;;;25572624;23;20194;-74
2022/01/24 14:39:52;;;;;;;0.20;0.10;;;19.20;99.90;;;;;;25571516;23;20249;-77
2022/01/24 14:49:56;;;;;;;0.20;0.10;;;19.30;99.90;;;;;;25572319;23;20303;-76
2022/01/24 15:00:03;;;;;;;1.30;1.07;;;19.70;99.90;;;;;;25568921;23;20194;-78
2022/01/24 15:10:09;;;;;;;0.20;0.10;;;19.10;99.90;;;;;;25570201;23;20301;-81
2022/01/24 15:30:35;;;;;;;0.20;0.00;;;18.30;99.90;;;;;;25579491;23;20209;-76
2022/01/24 15:40:41;;;;;;;0.20;0.10;;;18.40;99.90;;;;;;25582770;23;20163;-75
2022/01/24 15:50:44;;;;;;;0.20;0.07;;;17.80;99.90;;;;;;25591183;23;20268;-76
2022/01/24 16:00:50;;;;;;;0.20;0.10;;;16.40;99.90;;;;;;25589559;23;20280;-67
2022/01/24 16:10:54;;;;;;;0.20;0.10;;;15.90;99.90;;;;;;25584315;23;20271;-66
2022/01/24 16:21:15;;;;;;;0.20;0.10;;;15.00;99.90;;;;;;25585332;23;20256;-66
2022/01/24 16:31:18;;;;;;;0.20;0.10;;;14.50;99.90;;;;;;25586198;23;20570;-67
2022/01/24 16:41:34;;;;;;;0.20;0.00;;;13.40;99.90;;;;;;25586392;23;20177;-65
2022/01/24 16:51:38;;;;;;;0.20;0.10;;;12.80;99.90;;;;;;25585181;23;20337;-65
2022/01/24 17:01:44;;;;;;;0.20;0.10;;;12.50;99.90;;;;;;25586930;23;20272;-67
2022/01/24 17:11:54;;;;;;;0.20;0.10;;;12.00;99.90;;;;;;25586008;23;20297;-65
2022/01/24 17:22:00;;;;;;;0.20;0.10;;;11.80;99.90;;;;;;25585810;23;20174;-66
2022/01/24 17:32:05;;;;;;;0.20;0.20;;;11.60;99.90;;;;;;25582614;23;20186;-66
2022/01/24 17:42:11;;;;;;;0.20;0.10;;;10.30;99.90;;;;;;25581450;23;20264;-64
2022/01/24 17:52:15;;;;;;;0.20;0.10;;;10.00;99.90;;;;;;25578687;23;20559;-66
2022/01/24 18:02:21;;;;;;;0.20;0.10;;;9.40;99.90;;;;;;25577456;23;20269;-65
2022/01/24 18:12:25;;;;;;;0.20;0.10;;;9.30;99.90;;;;;;25578763;23;20328;-67
2022/01/24 18:22:30;;;;;;;0.20;0.10;;;9.20;99.90;;;;;;25577525;23;20170;-65
2022/01/24 18:32:34;;;;;;;0.20;0.10;;;8.80;99.90;;;;;;25578378;23;20193;-70
2022/01/24 18:42:40;;;;;;;0.20;0.03;;;8.60;99.90;;;;;;25577004;23;20617;-70
2022/01/24 18:52:44;;;;;;;0.20;0.00;;;8.30;99.90;;;;;;25579283;23;20196;-65
2022/01/24 19:02:49;;;;;;;0.20;0.10;;;8.20;99.90;;;;;;25583198;23;20269;-66
2022/01/24 19:12:54;;;;;;;0.20;0.10;;;8.10;99.90;;;;;;25583581;23;20276;-72
2022/01/24 19:33:29;;;;;;;1.37;1.30;;;8.20;99.90;;;;;;25571214;23;20281;-73
2022/01/24 19:43:34;;;;;;;0.20;0.10;;;8.20;99.90;;;;;;25592577;23;20676;-68
2022/01/24 19:53:43;;;;;;;6.87;6.13;;;8.00;99.90;;;;;;25584194;23;20201;-66
2022/01/24 20:03:49;;;;;;;0.20;0.10;;;7.90;99.90;;;;;;25583091;23;20265;-66
2022/01/24 20:13:53;;;;;;;0.20;0.03;;;7.90;99.90;;;;;;25579302;23;20206;-67
2022/01/24 20:23:59;;;;;;;0.30;0.30;;;7.60;99.90;;;;;;25582592;23;20189;-69
2022/01/24 20:34:03;;;;;;;1.03;1.03;;;7.30;99.90;;;;;;25578890;23;20190;-66
2022/01/24 20:44:09;;;;;;;5.77;2.30;;;7.20;99.90;;;;;;25581841;23;20182;-74
2022/01/24 20:54:18;;;;;;;0.20;0.00;;;7.30;99.90;;;;;;25579914;23;20186;-73
2022/01/24 21:04:23;;;;;;;0.20;0.10;;;6.90;99.90;;;;;;25584909;23;20277;-73
2022/01/24 21:14:27;;;;;;;0.20;0.00;;;7.10;99.90;;;;;;25585019;23;20228;-73
2022/01/24 21:24:33;;;;;;;0.20;0.00;;;7.00;99.90;;;;;;25584101;23;20196;-76
2022/01/24 21:35:00;;;;;;;0.20;0.00;;;7.00;99.90;;;;;;25584776;23;20257;-73
2022/01/24 21:45:06;;;;;;;0.47;0.47;;;6.80;99.90;;;;;;25585748;23;20252;-73
2022/01/24 21:55:12;;;;;;;0.20;0.00;;;6.90;99.90;;;;;;25587779;23;20186;-72
2022/01/24 22:05:18;;;;;;;0.20;0.00;;;6.90;99.90;;;;;;25585926;23;20687;-72
2022/01/24 22:15:23;;;;;;;0.20;0.10;;;7.20;99.90;;;;;;25585675;23;20273;-64
2022/01/24 22:25:29;;;;;;;0.20;0.00;;;6.70;99.90;;;;;;25587081;23;20253;-65
2022/01/24 22:35:33;;;;;;;0.20;0.00;;;6.70;99.90;;;;;;25586407;23;20280;-74
2022/01/24 22:45:38;;;;;;;0.33;0.33;;;7.30;99.90;;;;;;25585839;23;20632;-72
2022/01/24 22:55:42;;;;;;;0.20;0.00;;;7.20;99.90;;;;;;25586010;23;20202;-72
2022/01/24 23:05:47;;;;;;;0.20;0.00;;;6.90;99.90;;;;;;25583718;23;20304;-72
2022/01/24 23:26:15;;;;;;;0.20;0.00;;;6.80;99.90;;;;;;25585730;23;20645;-67
2022/01/24 23:46:43;;;;;;;0.20;0.10;;;6.80;99.90;;;;;;25583651;23;20217;-67
2022/01/24 23:56:52;;;;;;;0.20;0.17;;;6.90;99.90;;;;;;25582071;23;20256;-67
